createdAt,value
2022-08-25T00:00:20.361Z,2.60
2022-08-25T00:02:55.589Z,2.72
2022-08-25T00:05:29.389Z,3.00
2022-08-25T00:08:00.387Z,3.17
2022-08-25T00:10:28.626Z,3.20
2022-08-25T00:12:57.870Z,2.80
2022-08-25T00:15:26.470Z,3.30
2022-08-25T00:17:54.326Z,3.00
2022-08-25T00:20:22.796Z,2.78
2022-08-25T00:22:50.681Z,2.92
2022-08-25T00:25:19.227Z,3.72
2022-08-25T00:27:48.613Z,3.00
2022-08-25T00:30:19.515Z,3.08
2022-08-25T00:32:54.995Z,3.17
2022-08-25T00:35:26.741Z,3.00
2022-08-25T00:37:54.653Z,3.28
2022-08-25T00:40:22.956Z,3.38
2022-08-25T00:42:50.798Z,2.92
2022-08-25T00:45:20.157Z,3.00
2022-08-25T00:47:48.540Z,3.13
2022-08-25T00:50:17.578Z,2.88
2022-08-25T00:52:48.881Z,3.22
2022-08-25T00:55:21.379Z,3.10
2022-08-25T00:57:54.748Z,3.03
2022-08-25T01:00:27.497Z,3.30
2022-08-25T01:02:56.711Z,2.75
2022-08-25T01:05:25.049Z,3.10
2022-08-25T01:07:53.959Z,3.00
2022-08-25T01:10:28.761Z,3.17
2022-08-25T01:13:16.517Z,3.40
2022-08-25T01:15:46.679Z,3.30
2022-08-25T01:18:16.027Z,3.30
2022-08-25T01:20:44.101Z,3.10
2022-08-25T01:23:13.319Z,3.38
2022-08-25T01:25:48.910Z,2.90
2022-08-25T01:28:18.476Z,3.20
2022-08-25T01:30:46.372Z,3.42
2022-08-25T01:33:14.454Z,3.40
2022-08-25T01:35:42.388Z,3.25
2022-08-25T01:38:10.845Z,3.60
2022-08-25T01:40:41.156Z,3.22
2022-08-25T01:43:18.413Z,3.05
2022-08-25T01:45:49.022Z,3.10
2022-08-25T01:48:19.487Z,3.40
2022-08-25T01:50:47.438Z,3.50
2022-08-25T01:53:20.395Z,2.95
2022-08-25T01:55:53.098Z,3.40
2022-08-25T01:58:24.397Z,3.25
2022-08-25T02:00:54.361Z,3.17
2022-08-25T02:03:22.700Z,3.03
2022-08-25T02:05:50.556Z,3.03
2022-08-25T02:08:18.434Z,3.10
2022-08-25T02:10:46.568Z,3.88
2022-08-25T02:13:16.526Z,3.13
2022-08-25T02:15:47.351Z,3.10
2022-08-25T02:18:15.275Z,3.20
2022-08-25T02:20:43.104Z,3.28
2022-08-25T02:23:11.259Z,3.45
2022-08-25T02:25:41.115Z,3.20
2022-08-25T02:28:10.501Z,3.25
2022-08-25T02:30:42.516Z,3.20
2022-08-25T02:33:10.799Z,3.50
2022-08-25T02:35:39.222Z,3.03
2022-08-25T02:38:07.808Z,3.38
2022-08-25T02:40:35.956Z,3.25
2022-08-25T02:43:05.773Z,3.42
2022-08-25T02:45:33.728Z,3.38
2022-08-25T02:48:03.169Z,3.50
2022-08-25T02:50:31.317Z,3.70
2022-08-25T02:52:59.138Z,3.50
2022-08-25T02:55:26.983Z,3.53
2022-08-25T02:57:54.826Z,3.60
2022-08-25T03:00:23.234Z,3.40
2022-08-25T03:02:51.118Z,3.35
2022-08-25T03:05:20.347Z,3.65
2022-08-25T03:07:48.147Z,3.75
2022-08-25T03:10:18.853Z,3.97
2022-08-25T03:12:47.981Z,3.58
2022-08-25T03:15:17.786Z,3.80
2022-08-25T03:17:45.950Z,4.05
2022-08-25T03:20:14.376Z,3.95
2022-08-25T03:22:43.623Z,3.90
2022-08-25T03:25:29.333Z,4.15
2022-08-25T03:27:57.216Z,4.18
2022-08-25T03:30:25.826Z,3.80
2022-08-25T03:32:53.999Z,4.03
2022-08-25T03:35:21.973Z,4.10
2022-08-25T03:37:51.695Z,3.83
2022-08-25T03:40:19.562Z,3.78
2022-08-25T03:42:48.050Z,3.85
2022-08-25T03:45:17.779Z,4.00
2022-08-25T03:47:47.953Z,4.10
2022-08-25T03:50:17.491Z,4.13
2022-08-25T03:52:45.581Z,4.07
2022-08-25T03:55:15.618Z,3.92
2022-08-25T03:57:43.435Z,4.40
2022-08-25T04:00:13.284Z,3.90
2022-08-25T04:02:41.680Z,4.15
2022-08-25T04:05:10.865Z,4.65
2022-08-25T04:07:39.235Z,4.18
2022-08-25T04:10:10.045Z,4.32
2022-08-25T04:12:39.521Z,4.63
2022-08-25T04:15:09.175Z,4.30
2022-08-25T04:17:39.741Z,4.30
2022-08-25T04:20:09.454Z,4.68
2022-08-25T04:22:38.706Z,4.68
2022-08-25T04:25:08.540Z,4.78
2022-08-25T04:27:38.913Z,4.75
2022-08-25T04:30:08.147Z,4.25
2022-08-25T04:32:36.701Z,4.93
2022-08-25T04:35:05.478Z,4.45
2022-08-25T04:37:33.514Z,4.40
2022-08-25T04:40:01.392Z,4.70
2022-08-25T04:42:29.422Z,4.65
2022-08-25T04:44:58.791Z,4.43
2022-08-25T04:47:28.113Z,5.07
2022-08-25T04:49:56.874Z,4.45
2022-08-25T04:52:24.698Z,4.30
2022-08-25T04:54:52.693Z,4.60
2022-08-25T04:57:20.557Z,4.57
2022-08-25T04:59:48.553Z,4.70
2022-08-25T05:02:17.759Z,4.80
2022-08-25T05:04:45.580Z,4.82
2022-08-25T05:07:13.402Z,4.63
2022-08-25T05:09:41.320Z,4.32
2022-08-25T05:12:09.771Z,4.63
2022-08-25T05:14:40.075Z,4.60
2022-08-25T05:17:08.809Z,4.75
2022-08-25T05:19:38.322Z,4.13
2022-08-25T05:22:06.760Z,5.15
2022-08-25T05:24:34.747Z,4.90
2022-08-25T05:27:03.899Z,4.57
2022-08-25T05:29:31.913Z,5.15
2022-08-25T05:31:59.702Z,4.65
2022-08-25T05:34:27.518Z,4.70
2022-08-25T05:37:00.344Z,4.78
2022-08-25T05:39:28.228Z,5.00
2022-08-25T05:41:56.007Z,4.88
2022-08-25T05:44:23.848Z,4.78
2022-08-25T05:46:52.480Z,4.60
2022-08-25T05:49:20.346Z,4.57
2022-08-25T05:51:48.342Z,4.70
2022-08-25T05:54:17.581Z,4.85
2022-08-25T05:56:46.387Z,5.13
2022-08-25T05:59:14.401Z,5.35
2022-08-25T06:01:59.741Z,5.10
2022-08-25T06:04:27.461Z,4.50
2022-08-25T06:06:55.686Z,4.90
2022-08-25T06:09:25.467Z,4.90
2022-08-25T06:11:55.190Z,5.07
2022-08-25T06:14:23.821Z,5.13
2022-08-25T06:16:52.204Z,4.50
2022-08-25T06:19:21.168Z,4.80
2022-08-25T06:21:49.383Z,5.10
2022-08-25T06:24:17.132Z,5.18
2022-08-25T06:26:46.515Z,4.90
2022-08-25T06:29:14.961Z,5.25
2022-08-25T06:31:43.667Z,4.70
2022-08-25T06:34:11.896Z,4.45
2022-08-25T06:36:40.064Z,4.82
2022-08-25T06:39:08.200Z,4.65
2022-08-25T06:41:38.880Z,4.85
2022-08-25T06:44:08.102Z,4.85
2022-08-25T06:46:37.096Z,4.68
2022-08-25T06:49:06.309Z,4.57
2022-08-25T06:51:36.044Z,4.53
2022-08-25T06:54:05.217Z,4.57
2022-08-25T06:56:34.093Z,4.70
2022-08-25T06:59:01.971Z,4.70
2022-08-25T07:01:32.170Z,4.45
2022-08-25T07:04:02.345Z,4.38
2022-08-25T07:06:35.320Z,4.85
2022-08-25T07:09:05.274Z,4.40
2022-08-25T07:11:34.365Z,4.93
2022-08-25T07:14:03.328Z,4.80
2022-08-25T07:16:33.397Z,4.80
2022-08-25T07:19:01.800Z,5.07
2022-08-25T07:21:33.676Z,5.65
2022-08-25T07:24:06.573Z,4.93
2022-08-25T07:26:38.607Z,4.85
2022-08-25T07:29:14.020Z,6.10
2022-08-25T07:31:43.267Z,5.40
2022-08-25T07:34:29.236Z,5.80
2022-08-25T07:36:58.094Z,5.22
2022-08-25T07:42:15.218Z,5.13
2022-08-25T07:44:44.030Z,5.72
2022-08-25T07:47:15.833Z,5.28
2022-08-25T07:49:44.143Z,5.13
2022-08-25T07:52:11.897Z,5.50
2022-08-25T07:54:39.776Z,5.65
2022-08-25T07:57:10.023Z,5.45
2022-08-25T07:59:41.726Z,5.63
2022-08-25T08:02:18.677Z,5.60
2022-08-25T08:04:50.183Z,5.13
2022-08-25T08:07:19.920Z,5.18
2022-08-25T08:09:55.809Z,6.00
2022-08-25T08:12:28.630Z,5.18
2022-08-25T08:14:56.367Z,6.00
2022-08-25T08:17:24.146Z,6.00
2022-08-25T08:19:53.318Z,4.75
2022-08-25T08:22:21.345Z,5.20
2022-08-25T08:24:56.133Z,5.10
2022-08-25T08:27:25.092Z,5.45
2022-08-25T08:29:53.689Z,5.07
2022-08-25T08:32:23.828Z,5.45
2022-08-25T08:35:01.050Z,5.13
2022-08-25T08:37:28.930Z,5.07
2022-08-25T08:39:57.982Z,5.15
2022-08-25T08:42:42.970Z,5.68
2022-08-25T08:45:35.518Z,5.20
2022-08-25T08:48:24.019Z,5.38
2022-08-25T08:51:02.806Z,5.30
2022-08-25T08:53:43.825Z,5.57
2022-08-25T08:56:16.771Z,5.70
2022-08-25T08:58:49.916Z,5.20
2022-08-25T09:01:25.664Z,5.38
2022-08-25T09:03:59.795Z,5.45
2022-08-25T09:06:35.049Z,5.18
2022-08-25T09:09:06.931Z,5.40
2022-08-25T09:11:50.212Z,5.70
2022-08-25T09:14:34.089Z,5.72
2022-08-25T09:17:07.170Z,5.95
2022-08-25T09:19:54.134Z,5.68
2022-08-25T09:22:37.850Z,5.32
2022-08-25T09:25:18.792Z,5.20
2022-08-25T09:28:02.211Z,4.97
2022-08-25T09:30:46.349Z,5.30
2022-08-25T09:33:20.894Z,5.47
2022-08-25T09:35:51.698Z,5.30
2022-08-25T09:38:23.818Z,5.00
2022-08-25T09:40:55.749Z,4.72
2022-08-25T09:43:32.362Z,4.72
2022-08-25T09:46:03.457Z,4.60
2022-08-25T09:48:40.791Z,4.65
2022-08-25T09:51:18.159Z,4.30
2022-08-25T09:53:52.869Z,4.38
2022-08-25T09:56:22.965Z,4.40
2022-08-25T09:58:51.902Z,4.57
2022-08-25T10:01:22.589Z,4.97
2022-08-25T10:04:00.867Z,4.40
2022-08-25T10:06:34.534Z,4.30
2022-08-25T10:09:06.986Z,4.55
2022-08-25T10:11:40.519Z,4.07
2022-08-25T10:14:19.327Z,4.25
2022-08-25T10:16:49.479Z,4.43
2022-08-25T10:19:26.506Z,4.45
2022-08-25T10:22:07.457Z,4.57
2022-08-25T10:24:38.330Z,4.00
2022-08-25T10:27:20.458Z,3.90
2022-08-25T10:30:16.097Z,4.05
2022-08-25T10:33:09.660Z,4.40
2022-08-25T10:35:49.125Z,4.35
2022-08-25T10:38:36.154Z,4.55
2022-08-25T10:41:19.871Z,4.47
2022-08-25T10:43:54.351Z,4.25
2022-08-25T10:46:31.684Z,4.10
2022-08-25T10:49:05.747Z,4.10
2022-08-25T10:51:51.149Z,3.83
2022-08-25T10:54:30.332Z,4.10
2022-08-25T10:57:08.965Z,4.15
2022-08-25T10:59:52.222Z,4.28
2022-08-25T11:02:54.075Z,4.13
2022-08-25T11:05:28.214Z,4.10
2022-08-25T11:08:07.232Z,4.25
2022-08-25T11:10:42.814Z,4.00
2022-08-25T11:13:17.974Z,3.90
2022-08-25T11:16:13.720Z,3.92
2022-08-25T11:18:51.174Z,3.95
2022-08-25T11:21:24.465Z,3.90
2022-08-25T11:23:56.515Z,3.95
2022-08-25T11:26:36.649Z,4.07
2022-08-25T11:29:13.470Z,4.22
2022-08-25T11:31:47.321Z,4.10
2022-08-25T11:34:19.541Z,4.13
2022-08-25T11:36:53.100Z,4.10
2022-08-25T11:39:34.678Z,3.90
2022-08-25T11:42:13.850Z,3.75
2022-08-25T11:44:54.987Z,3.95
2022-08-25T11:47:40.819Z,4.35
2022-08-25T11:50:25.939Z,4.15
2022-08-25T11:53:01.277Z,3.97
2022-08-25T11:55:47.159Z,4.30
2022-08-25T11:58:31.716Z,3.78
2022-08-25T12:01:02.843Z,4.30
2022-08-25T12:03:53.386Z,4.00
2022-08-25T12:06:26.122Z,3.85
2022-08-25T12:09:19.286Z,3.85
2022-08-25T12:11:52.316Z,3.70
2022-08-25T12:14:42.430Z,4.18
2022-08-25T12:17:37.791Z,3.40
2022-08-25T12:20:08.240Z,3.50
2022-08-25T12:22:58.575Z,3.80
2022-08-25T12:25:47.416Z,3.40
2022-08-25T12:28:51.626Z,3.40
2022-08-25T12:31:30.181Z,3.70
2022-08-25T12:34:16.807Z,3.88
2022-08-25T12:36:58.996Z,3.50
2022-08-25T12:39:33.205Z,3.75
2022-08-25T12:42:04.475Z,3.58
2022-08-25T12:44:40.297Z,3.40
2022-08-25T12:47:14.818Z,3.60
2022-08-25T12:49:44.071Z,3.83
2022-08-25T12:52:15.982Z,3.63
2022-08-25T12:54:50.111Z,3.72
2022-08-25T12:57:33.570Z,4.00
2022-08-25T13:00:08.185Z,3.95
2022-08-25T13:03:02.804Z,3.95
2022-08-25T13:05:56.744Z,3.53
2022-08-25T13:08:51.704Z,3.92
2022-08-25T13:11:25.718Z,4.00
2022-08-25T13:13:58.687Z,3.58
2022-08-25T13:16:29.986Z,3.40
2022-08-25T13:19:01.573Z,3.58
2022-08-25T13:21:35.144Z,3.22
2022-08-25T13:24:10.478Z,3.70
2022-08-25T13:26:47.192Z,3.58
2022-08-25T13:29:21.455Z,3.65
2022-08-25T13:31:55.363Z,3.40
2022-08-25T13:34:34.231Z,3.55
2022-08-25T13:37:27.627Z,3.60
2022-08-25T13:40:10.220Z,3.80
2022-08-25T13:42:42.400Z,3.97
2022-08-25T13:45:16.528Z,3.75
2022-08-25T13:47:46.139Z,3.95
2022-08-25T13:50:29.883Z,3.72
2022-08-25T13:53:02.763Z,3.90
2022-08-25T13:55:38.408Z,4.20
2022-08-25T13:58:24.895Z,4.15
2022-08-25T14:01:22.850Z,4.50
2022-08-25T14:04:31.997Z,4.38
2022-08-25T14:07:19.269Z,4.60
2022-08-25T14:09:51.671Z,3.80
2022-08-25T14:12:35.683Z,4.20
2022-08-25T14:15:08.176Z,3.67
2022-08-25T14:17:40.318Z,4.70
2022-08-25T14:20:22.034Z,3.75
2022-08-25T14:22:52.654Z,4.55
2022-08-25T14:25:23.134Z,4.10
2022-08-25T14:28:13.687Z,3.65
2022-08-25T14:30:46.388Z,4.25
2022-08-25T14:33:16.204Z,3.70
2022-08-25T14:35:47.551Z,4.20
2022-08-25T14:38:16.272Z,3.53
2022-08-25T14:40:46.576Z,4.50
2022-08-25T14:43:15.883Z,4.72
2022-08-25T14:45:48.281Z,3.80
2022-08-25T14:48:25.423Z,5.10
2022-08-25T14:50:55.725Z,5.30
2022-08-25T14:53:23.510Z,5.40
2022-08-25T14:55:55.699Z,4.13
2022-08-25T14:58:33.944Z,4.57
2022-08-25T15:01:03.513Z,3.72
2022-08-25T15:03:34.174Z,3.60
2022-08-25T15:06:03.342Z,3.45
2022-08-25T15:08:49.873Z,3.72
2022-08-25T15:11:19.184Z,3.83
2022-08-25T15:13:49.627Z,4.10
2022-08-25T15:16:23.531Z,4.03
2022-08-25T15:18:52.182Z,3.70
2022-08-25T15:21:21.542Z,3.80
2022-08-25T15:23:51.051Z,3.75
2022-08-25T15:26:25.999Z,3.67
2022-08-25T15:28:53.903Z,3.83
2022-08-25T15:31:23.562Z,3.67
2022-08-25T15:33:51.620Z,3.90
2022-08-25T15:36:25.071Z,3.40
2022-08-25T15:38:53.545Z,3.58
2022-08-25T15:41:22.441Z,3.60
2022-08-25T15:43:56.671Z,3.70
2022-08-25T15:46:26.200Z,3.50
2022-08-25T15:51:27.014Z,3.72
2022-08-25T15:53:55.533Z,4.00
2022-08-25T15:56:26.641Z,3.42
2022-08-25T15:58:56.448Z,3.63
2022-08-25T16:01:27.145Z,3.60
2022-08-25T16:03:55.304Z,3.90
2022-08-25T16:06:24.257Z,3.70
2022-08-25T16:08:53.715Z,3.72
2022-08-25T16:11:24.503Z,4.03
2022-08-25T16:13:53.373Z,3.80
2022-08-25T16:16:25.188Z,3.83
2022-08-25T16:18:53.350Z,4.15
2022-08-25T16:21:25.501Z,4.13
2022-08-25T16:23:55.213Z,3.83
2022-08-25T16:26:23.248Z,3.75
2022-08-25T16:28:51.470Z,3.95
2022-08-25T16:31:19.761Z,3.50
2022-08-25T16:33:49.918Z,3.83
2022-08-25T16:36:20.793Z,3.60
2022-08-25T16:38:50.422Z,3.95
2022-08-25T16:41:20.568Z,3.80
2022-08-25T16:43:49.016Z,3.70
2022-08-25T16:46:20.340Z,3.40
2022-08-25T16:48:50.467Z,3.90
2022-08-25T16:51:22.609Z,3.53
2022-08-25T16:54:10.948Z,3.92
2022-08-25T16:56:42.198Z,3.83
2022-08-25T16:59:12.270Z,3.60
2022-08-25T17:01:42.918Z,3.50
2022-08-25T17:04:13.489Z,3.63
2022-08-25T17:06:49.387Z,3.60
2022-08-25T17:09:22.908Z,3.72
2022-08-25T17:11:56.947Z,3.83
2022-08-25T17:14:25.610Z,4.18
2022-08-25T17:16:55.049Z,3.50
2022-08-25T17:19:25.922Z,4.55
2022-08-25T17:21:55.115Z,3.90
2022-08-25T17:24:29.374Z,3.50
2022-08-25T17:27:01.361Z,3.50
2022-08-25T17:29:30.045Z,3.65
2022-08-25T17:31:58.473Z,3.65
2022-08-25T17:34:29.538Z,3.95
2022-08-25T17:36:58.537Z,3.70
2022-08-25T17:39:27.639Z,3.70
2022-08-25T17:41:56.205Z,3.42
2022-08-25T17:44:24.032Z,3.83
2022-08-25T17:46:52.007Z,3.70
2022-08-25T17:49:20.135Z,3.90
2022-08-25T17:51:49.268Z,3.67
2022-08-25T17:54:18.288Z,4.10
2022-08-25T17:56:46.112Z,3.60
2022-08-25T17:59:13.996Z,3.50
2022-08-25T18:01:41.842Z,3.67
2022-08-25T18:04:17.330Z,3.60
2022-08-25T18:06:46.530Z,3.70
2022-08-25T18:09:16.053Z,3.85
2022-08-25T18:11:43.886Z,3.90
2022-08-25T18:14:12.631Z,4.30
2022-08-25T18:16:40.827Z,3.92
2022-08-25T18:19:10.772Z,3.88
2022-08-25T18:21:39.320Z,3.58
2022-08-25T18:24:07.993Z,3.80
2022-08-25T18:26:37.445Z,3.60
2022-08-25T18:29:05.607Z,3.90
2022-08-25T18:31:33.454Z,3.95
2022-08-25T18:34:02.230Z,4.57
2022-08-25T18:36:30.088Z,4.13
2022-08-25T18:39:15.480Z,3.78
2022-08-25T18:41:45.789Z,3.78
2022-08-25T18:44:15.565Z,3.88
2022-08-25T18:46:43.681Z,3.72
2022-08-25T18:49:15.859Z,4.22
2022-08-25T18:51:44.684Z,4.32
2022-08-25T18:54:22.858Z,3.85
2022-08-25T18:56:53.403Z,4.07
2022-08-25T18:59:23.613Z,3.65
2022-08-25T19:01:52.891Z,4.00
2022-08-25T19:04:20.871Z,4.03
2022-08-25T19:06:56.271Z,4.25
2022-08-25T19:09:24.079Z,3.88
2022-08-25T19:11:54.688Z,3.85
2022-08-25T19:14:23.240Z,4.15
2022-08-25T19:16:54.706Z,3.70
2022-08-25T19:19:23.851Z,3.95
2022-08-25T19:21:52.091Z,4.07
2022-08-25T19:24:19.988Z,3.70
2022-08-25T19:26:50.467Z,4.10
2022-08-25T19:29:23.720Z,3.92
2022-08-25T19:31:53.261Z,4.10
2022-08-25T19:34:28.009Z,3.90
2022-08-25T19:37:00.223Z,4.32
2022-08-25T19:39:30.594Z,4.43
2022-08-25T19:41:59.023Z,4.03
2022-08-25T19:44:29.617Z,4.13
2022-08-25T19:46:58.047Z,4.43
2022-08-25T19:49:31.569Z,4.55
2022-08-25T19:52:00.294Z,3.83
2022-08-25T19:54:30.875Z,3.95
2022-08-25T19:56:59.282Z,4.00
2022-08-25T19:59:40.825Z,3.92
2022-08-25T20:02:15.319Z,4.10
2022-08-25T20:04:49.294Z,4.03
2022-08-25T20:07:19.082Z,4.30
2022-08-25T20:09:47.286Z,4.20
2022-08-25T20:14:50.922Z,4.28
2022-08-25T20:17:24.305Z,3.83
2022-08-25T20:19:55.447Z,4.53
2022-08-25T20:22:26.327Z,4.47
2022-08-25T20:24:56.240Z,3.90
2022-08-25T20:27:32.220Z,4.63
2022-08-25T20:30:03.014Z,4.53
2022-08-25T20:32:32.521Z,4.25
2022-08-25T20:35:00.558Z,4.03
2022-08-25T20:37:28.583Z,3.97
2022-08-25T20:39:56.460Z,4.18
2022-08-25T20:42:25.019Z,4.40
2022-08-25T20:44:53.587Z,4.50
2022-08-25T20:47:22.794Z,4.60
2022-08-25T20:49:50.609Z,4.47
2022-08-25T20:52:19.662Z,4.70
2022-08-25T20:54:50.360Z,4.13
2022-08-25T20:57:19.383Z,3.97
2022-08-25T20:59:54.725Z,4.10
2022-08-25T21:02:24.843Z,4.20
2022-08-25T21:04:53.516Z,4.50
2022-08-25T21:07:23.680Z,4.28
2022-08-25T21:09:51.936Z,4.90
2022-08-25T21:12:20.138Z,4.80
2022-08-25T21:14:48.213Z,4.00
2022-08-25T21:17:19.367Z,4.10
2022-08-25T21:22:21.527Z,4.40
2022-08-25T21:24:51.439Z,4.53
2022-08-25T21:27:19.743Z,4.10
2022-08-25T21:29:54.450Z,5.05
2022-08-25T21:32:23.321Z,4.07
2022-08-25T21:34:54.604Z,4.10
2022-08-25T21:37:23.059Z,4.63
2022-08-25T21:39:51.295Z,4.10
2022-08-25T21:42:19.505Z,4.30
2022-08-25T21:44:47.446Z,3.95
2022-08-25T21:47:15.854Z,3.92
2022-08-25T21:49:49.419Z,3.90
2022-08-25T21:52:18.716Z,4.00
2022-08-25T21:54:46.536Z,4.18
2022-08-25T21:57:14.615Z,4.22
2022-08-25T21:59:43.512Z,4.22
2022-08-25T22:02:13.779Z,4.47
2022-08-25T22:04:42.149Z,4.15
2022-08-25T22:07:11.669Z,4.30
2022-08-25T22:09:41.547Z,4.22
2022-08-25T22:12:10.393Z,4.10
2022-08-25T22:14:39.360Z,3.97
2022-08-25T22:17:12.265Z,3.92
2022-08-25T22:19:45.514Z,3.85
2022-08-25T22:22:13.419Z,3.80
2022-08-25T22:24:43.703Z,4.30
2022-08-25T22:27:15.814Z,3.90
2022-08-25T22:29:45.177Z,3.90
2022-08-25T22:32:13.562Z,3.83
2022-08-25T22:34:43.676Z,3.85
2022-08-25T22:37:11.973Z,4.25
2022-08-25T22:39:40.429Z,4.10
2022-08-25T22:42:09.859Z,4.05
2022-08-25T22:44:39.213Z,4.50
2022-08-25T22:47:09.323Z,3.95
2022-08-25T22:49:40.174Z,4.10
2022-08-25T22:52:09.248Z,4.80
2022-08-25T22:54:39.447Z,4.22
2022-08-25T22:57:07.604Z,3.90
2022-08-25T22:59:36.778Z,4.15
2022-08-25T23:02:04.815Z,4.35
2022-08-25T23:04:32.703Z,4.30
2022-08-25T23:07:00.513Z,4.28
2022-08-25T23:09:28.444Z,4.22
2022-08-25T23:11:56.413Z,4.00
2022-08-25T23:14:26.177Z,3.90
2022-08-25T23:16:56.507Z,4.20
2022-08-25T23:19:24.522Z,4.25
2022-08-25T23:22:10.573Z,4.50
2022-08-25T23:24:42.681Z,4.10
2022-08-25T23:29:41.152Z,4.50
2022-08-25T23:32:14.069Z,4.13
2022-08-25T23:34:43.872Z,4.10
2022-08-25T23:37:16.170Z,4.53
2022-08-25T23:39:49.544Z,5.00
2022-08-25T23:42:18.338Z,4.35
2022-08-25T23:44:46.214Z,4.40
2022-08-25T23:47:15.382Z,4.50
2022-08-25T23:49:43.232Z,4.57
2022-08-25T23:52:11.073Z,4.63
2022-08-25T23:54:39.329Z,4.45
2022-08-25T23:57:07.698Z,4.68
2022-08-25T23:59:37.408Z,4.75
